Berry, Kentucky
Current Conditions -  °F | °C
As of 2:35 PM on Monday 22 Dec 2014 (Local Time) from KFGX Reporting Station
Overcast Overcast  
Wind Chill: 52°   Ceiling: 3900
Heat Index: 52°   Visibility: 10mi
Dew Point: 41°   Wind: 8mph
Humidity: 66%   Direction: 100°E
Pressure: 29.88"   Gusts: NA
Location:  38.52°N, 84.38°W
Report Text: KFGX 221935Z AUTO 10007KT 10SM OVC039 11/05 A2988 RMK AO2 T01090048
Loading
Personal Weather Stations






























Interactive Weather Map New forecast layout! Learn more

10-Day Weather Forecast

Advertisements
Track Severe Weather on mobile